tititudorancea.com
Station Historical Data
Daily Summary for January 31, 2018 Units:  Metric    English   Both
« Previous Day
Next Day »
Daily Weekly Monthly Yearly Custom
  High: Low: Average:
Temperature: -17.8 °C 12.8 °C 17.1 °C
Dew Point: -17.8 °C 2.9 °C 4.8 °C
Humidity: Humidity % 36 % 44 %
Wind Speed: 0 km/h 10.6 km/h 19.2 km/h
Wind Gust: 0 km/h - -
Wind:- - South
Pressure: 0 hPa 1013.4 hPa -
Precipitation: 0 mm    
Historical Graphs
 
 
Ararat weather Find more about Weather in Ararat, AU


 



 


Tabular Data for January 31, 2018
Time Temperature Dew Point Pressure Wind Wind Speed Wind Gust Humidity Rainfall Rate (Hourly)
-17.8 °C -17.8 °C 0 hPa Calm     Humidity % 0 mm
10:41 14.9 °C 7.2 °C 1015.1 hPa SE 13.7 km/h 29.6 km/h 60 % 0 mm
13:04 16.9 °C 7.2 °C 1015.1 hPa South 20.6 km/h 33.3 km/h 53 % 0 mm
13:09 17.2 °C 7.6 °C 1014.8 hPa South 16.7 km/h 30.6 km/h 53 % 0 mm
13:17 17.5 °C 7.2 °C 1015.1 hPa South 20.6 km/h 25.9 km/h 51 % 0 mm
13:22 17.2 °C 7.2 °C 1015.1 hPa South 14.5 km/h 22.2 km/h 52 % 0 mm
13:27 17.1 °C 6.3 °C 1014.8 hPa South 19.3 km/h 25.9 km/h 49 % 0 mm
13:32 17.6 °C 6.2 °C 1014.8 hPa South 26.6 km/h 46.3 km/h 47 % 0 mm
13:37 18.2 °C 7 °C 1015.1 hPa SE 20.1 km/h 35.2 km/h 48 % 0 mm
13:42 18.1 °C 6.6 °C 1014.8 hPa North 16.3 km/h 25.7 km/h 47 % 0 mm
13:47 17.8 °C 6 °C 1014.8 hPa South 15.1 km/h 24.1 km/h 46 % 0 mm
13:52 17.9 °C 6.4 °C 1014.8 hPa North 14.3 km/h 25.9 km/h 47 % 0 mm
13:57 17.4 °C 5.7 °C 1014.8 hPa SSW 26.1 km/h 42.6 km/h 46 % 0 mm
14:02 17.6 °C 6.1 °C 1014.8 hPa North 26.7 km/h 37 km/h 47 % 0 mm
14:07 17.7 °C 5.9 °C 1014.8 hPa SSW 26.7 km/h 35.2 km/h 46 % 0 mm
14:12 17.9 °C 6.2 °C 1014.8 hPa SSW 18.3 km/h 24.1 km/h 46 % 0 mm
14:17 17.9 °C 5.8 °C 1014.8 hPa South 24.8 km/h 35.2 km/h 45 % 0 mm
14:22 18.3 °C 5.8 °C 1014.4 hPa SSW 28.2 km/h 33.8 km/h 44 % 0 mm
14:27 18.3 °C 5.8 °C 1014.4 hPa South 21.4 km/h 38.6 km/h 44 % 0 mm
14:32 18.3 °C 5.8 °C 1014.4 hPa SSE 20 km/h 20 km/h 44 % 0 mm
14:37 18.2 °C 5.4 °C 1014.1 hPa SSW 24.6 km/h 37 km/h 43 % 0 mm
14:42 18.2 °C 5.4 °C 1014.1 hPa SW 18.8 km/h 33.3 km/h 43 % 0 mm
14:47 18.4 °C 5.3 °C 1014.1 hPa SW 24 km/h 38.9 km/h 42 % 0 mm
14:52 18.5 °C 5.3 °C 1014.1 hPa SSW 29.3 km/h 31.5 km/h 42 % 0 mm
14:57 18.8 °C 5.2 °C 1014.1 hPa SSW 25.9 km/h 40.7 km/h 41 % 0 mm
15:02 18.9 °C 5.3 °C 1014.1 hPa SE 21.2 km/h 32.2 km/h 41 % 0 mm
15:07 18.8 °C 4.9 °C 1014.1 hPa SSW 21.6 km/h 29.6 km/h 40 % 0 mm
15:13 18.7 °C 4.8 °C 1014.1 hPa SSW 19.3 km/h 25.9 km/h 40 % 0 mm
15:18 18.9 °C 5 °C 1014.1 hPa SSE 23 km/h 27.8 km/h 40 % 0 mm
15:23 18.9 °C 5.1 °C 1014.1 hPa SSE 21.1 km/h 31.5 km/h 40 % 0 mm
15:28 18.9 °C 4.7 °C 1014.1 hPa South 22.5 km/h 37 km/h 39 % 0 mm
15:33 18.9 °C 4.3 °C 1014.1 hPa SE 15.1 km/h 29.6 km/h 38 % 0 mm
15:38 19 °C 4.7 °C 1014.1 hPa SSE 18.3 km/h 31.5 km/h 39 % 0 mm
15:43 19.2 °C 4.1 °C 1014.1 hPa South 18.2 km/h 31.5 km/h 37 % 0 mm
15:48 18.9 °C 3.9 °C 1014.1 hPa SE 16.7 km/h 35.4 km/h 37 % 0 mm
15:53 18.8 °C 4.2 °C 1014.4 hPa South 15.9 km/h 31.5 km/h 38 % 0 mm
15:58 19 °C 3.9 °C 1014.1 hPa SSW 19.6 km/h 37 km/h 37 % 0 mm
16:03 19 °C 4.3 °C 1014.1 hPa South 19.5 km/h 31.5 km/h 38 % 0 mm
16:08 18.9 °C 5.1 °C 1014.1 hPa South 25.3 km/h 37 km/h 40 % 0 mm
16:13 18.9 °C 5.1 °C 1014.1 hPa SSE 21.9 km/h 33.3 km/h 40 % 0 mm
16:18 19.1 °C 5.1 °C 1014.1 hPa South 27.4 km/h 33.3 km/h 40 % 0 mm
16:23 18.8 °C 5.2 °C 1014.1 hPa SSE 24.6 km/h 37 km/h 41 % 0 mm
16:28 18.4 °C 4.6 °C 1014.1 hPa South 23.7 km/h 35.2 km/h 40 % 0 mm
16:33 18.2 °C 4.4 °C 1014.1 hPa SSW 25.6 km/h 37 km/h 40 % 0 mm
16:38 18.2 °C 4.3 °C 1014.1 hPa South 21.4 km/h 35.2 km/h 40 % 0 mm
16:43 18.5 °C 4.6 °C 1014.1 hPa SSW 22.9 km/h 38.9 km/h 40 % 0 mm
16:48 18.3 °C 4.1 °C 1014.1 hPa North 18.8 km/h 31.5 km/h 39 % 0 mm
16:53 18.3 °C 4.1 °C 1014.1 hPa North 16.4 km/h 29.6 km/h 39 % 0 mm
16:58 18.3 °C 3.7 °C 1013.8 hPa South 19.3 km/h 31.5 km/h 38 % 0 mm
17:03 18.4 °C 3.8 °C 1013.8 hPa South 15.8 km/h 25.9 km/h 38 % 0 mm
17:08 18.3 °C 2.9 °C 1013.8 hPa North 21.6 km/h 35.2 km/h 36 % 0 mm
17:13 18.3 °C 3.7 °C 1013.8 hPa SE 14.6 km/h 31.5 km/h 38 % 0 mm
17:18 18.6 °C 4 °C 1013.8 hPa South 16.6 km/h 30.6 km/h 38 % 0 mm
17:23 18.6 °C 4.4 °C 1013.8 hPa SSW 21.4 km/h 31.5 km/h 39 % 0 mm
17:28 18.3 °C 4.5 °C 1013.8 hPa SSE 20.1 km/h 37 km/h 40 % 0 mm
17:33 18.2 °C 4.7 °C 1013.4 hPa SSE 24.5 km/h 38.9 km/h 41 % 0 mm
17:38 18.1 °C 4.6 °C 1013.8 hPa South 23.5 km/h 33.3 km/h 41 % 0 mm
17:43 17.8 °C 4.7 °C 1013.8 hPa SE 22.5 km/h 35.2 km/h 42 % 0 mm
17:48 17.9 °C 4.8 °C 1013.4 hPa SSE 18 km/h 35.2 km/h 42 % 0 mm
17:53 18.1 °C 5 °C 1013.4 hPa SSE 15.1 km/h 31.5 km/h 42 % 0 mm
17:58 17.9 °C 4.4 °C 1013.4 hPa SSE 18.5 km/h 31.5 km/h 41 % 0 mm
18:03 17.8 °C 4.4 °C 1013.4 hPa SE 14.2 km/h 38.9 km/h 41 % 0 mm
18:08 17.7 °C 3.9 °C 1013.4 hPa South 17.5 km/h 22.2 km/h 40 % 0 mm
18:13 17.5 °C 4.1 °C 1013.4 hPa South 18.2 km/h 25.9 km/h 41 % 0 mm
18:18 17.6 °C 4.2 °C 1013.4 hPa SSE 21.6 km/h 33.3 km/h 41 % 0 mm
18:23 17.6 °C 4.2 °C 1013.4 hPa SSE 16.6 km/h 27.8 km/h 41 % 0 mm
18:28 17.7 °C 4.2 °C 1013.4 hPa SE 24.8 km/h 35.2 km/h 41 % 0 mm
18:33 17.6 °C 4.6 °C 1013.4 hPa South 15.3 km/h 25.9 km/h 42 % 0 mm
18:38 17.3 °C 5.3 °C 1013.4 hPa South 26.2 km/h 42.6 km/h 45 % 0 mm
18:43 17.4 °C 5.3 °C 1013.8 hPa SE 15 km/h 27.8 km/h 45 % 0 mm
18:48 17.3 °C 5.2 °C 1013.4 hPa SE 19.3 km/h 30.6 km/h 45 % 0 mm
18:53 17.4 °C 5.3 °C 1013.4 hPa SSE 17.9 km/h 29.6 km/h 45 % 0 mm
18:58 17.3 °C 4.9 °C 1013.4 hPa SSE 13 km/h 31.5 km/h 44 % 0 mm
19:03 17.1 °C 5.1 °C 1013.4 hPa South 19.3 km/h 25.9 km/h 45 % 0 mm
19:08 16.8 °C 5.1 °C 1013.4 hPa SE 15.8 km/h 27.8 km/h 46 % 0 mm
19:13 16.7 °C 5.3 °C 1013.4 hPa South 21.6 km/h 31.5 km/h 47 % 0 mm
19:18 16.5 °C 5.2 °C 1013.8 hPa SSE 20.1 km/h 33.3 km/h 47 % 0 mm
19:23 16.4 °C 4.8 °C 1013.8 hPa SSE 23.5 km/h 33.3 km/h 46 % 0 mm
19:28 16.3 °C 4.7 °C 1013.8 hPa South 16.9 km/h 31.5 km/h 46 % 0 mm
19:33 16.2 °C 4.8 °C 1013.8 hPa South 18.3 km/h 37 km/h 47 % 0 mm
19:38 15.9 °C 4.9 °C 1013.8 hPa SSE 14 km/h 18.5 km/h 48 % 0 mm
19:43 15.9 °C 4.9 °C 1013.8 hPa SSE 16.6 km/h 31.5 km/h 48 % 0 mm
19:48 15.8 °C 4.8 °C 1014.1 hPa SSE 17.7 km/h 24.1 km/h 48 % 0 mm
19:53 15.7 °C 5 °C 1014.1 hPa South 17.4 km/h 20.4 km/h 49 % 0 mm
19:58 15.5 °C 4.8 °C 1014.1 hPa SE 16.6 km/h 35.2 km/h 49 % 0 mm
20:03 15.4 °C 5 °C 1014.1 hPa South 10.6 km/h 22.2 km/h 50 % 0 mm
20:08 15.3 °C 4.9 °C 1014.1 hPa SSE 13.5 km/h 20.4 km/h 50 % 0 mm
20:13 15.2 °C 4.8 °C 1014.1 hPa SSE 18 km/h 27.8 km/h 50 % 0 mm
20:18 15.1 °C 4.7 °C 1014.1 hPa SSE 17.2 km/h 24.1 km/h 50 % 0 mm
20:23 14.9 °C 4.6 °C 1014.1 hPa South 16.1 km/h 27.8 km/h 50 % 0 mm
20:28 14.7 °C 4.7 °C 1014.4 hPa SSE 13.4 km/h 20.4 km/h 51 % 0 mm
20:33 14.7 °C 4.6 °C 1014.4 hPa SSE 14 km/h 27.8 km/h 51 % 0 mm
20:38 14.5 °C 4.2 °C 1014.8 hPa SSE 18.3 km/h 31.5 km/h 50 % 0 mm
20:43 14.4 °C 4.2 °C 1014.8 hPa South 12.4 km/h 16.7 km/h 50 % 0 mm
22:43 13.1 °C 5.8 °C 1015.8 hPa SSE 14.3 km/h 20.4 km/h 61 % 0 mm
23:25 12.8 °C 5.5 °C 1015.8 hPa SE 13.8 km/h 27.8 km/h 61 % 0 mm
Ararat Weather
Compliments of Weather Underground - 1.5 mb
Click here to send mail.


ABOUT

Live weather data from Ararat, Victoria, Australia, 3377
Data uploaded from Cumulus every 5 minutes to Weather Underground.
This site then downloads the raw data for formatting and display.
Metric and imperial data can be displayed. Graphs and historical data available.
Includes Sun and Moon times and rain image live from BOM.

Check out Ararat Weather on Facebook, Twitter and Google +

Help support ongoing costs by checking out the ads





Follow @AraratWeather